Time;durP1;ratioP1;P1;durP2;ratioP2;P2;SDS_P1;SDS_P2;PMS_P1;PMS_P2;Temp;Humidity;BMP_temperature;BMP_pressure;BME280_temperature;BME280_humidity;BME280_pressure;Samples;Min_cycle;Max_cycle;Signal;HPM_P1;HPM_P2
2023/05/17 00:01:37;;;;;;;16.27;13.50;;;9.70;96.00;;;;;;5073253;28;20380;-59
2023/05/17 00:04:03;;;;;;;16.95;13.88;;;9.70;96.30;;;;;;5073339;28;20024;-59
2023/05/17 00:06:30;;;;;;;17.00;12.95;;;9.70;97.70;;;;;;5073119;28;20116;-59
2023/05/17 00:08:56;;;;;;;16.42;13.73;;;9.60;98.20;;;;;;5072858;28;20060;-59
2023/05/17 00:11:21;;;;;;;18.13;12.68;;;9.60;98.80;;;;;;5073012;28;20412;-58
2023/05/17 00:13:47;;;;;;;14.73;11.20;;;9.60;97.20;;;;;;5072949;28;20099;-59
2023/05/17 00:16:12;;;;;;;17.40;11.27;;;9.50;95.30;;;;;;5073248;28;20054;-58
2023/05/17 00:18:38;;;;;;;13.30;11.15;;;9.50;95.60;;;;;;5073684;28;20082;-59
2023/05/17 00:21:04;;;;;;;12.45;10.10;;;9.60;95.60;;;;;;5072899;28;20146;-58
2023/05/17 00:23:29;;;;;;;14.13;10.05;;;9.50;94.90;;;;;;5071621;28;20104;-59
2023/05/17 00:25:55;;;;;;;16.13;9.65;;;9.50;93.10;;;;;;5072729;28;20483;-59
2023/05/17 00:28:21;;;;;;;16.17;10.57;;;9.50;93.70;;;;;;5072700;28;20024;-59
2023/05/17 00:30:46;;;;;;;13.68;8.75;;;9.40;91.30;;;;;;5072905;28;20033;-59
2023/05/17 00:33:12;;;;;;;13.50;10.43;;;9.30;88.60;;;;;;5072992;28;20024;-59
2023/05/17 00:35:38;;;;;;;15.82;10.07;;;9.30;91.80;;;;;;5071427;28;20404;-59
2023/05/17 00:38:03;;;;;;;12.57;9.65;;;9.30;92.40;;;;;;5072703;28;20456;-59
2023/05/17 00:40:29;;;;;;;18.92;9.50;;;9.30;92.10;;;;;;5072905;28;20032;-59
2023/05/17 00:42:54;;;;;;;10.50;8.65;;;9.30;91.70;;;;;;5072512;28;20028;-59
2023/05/17 00:45:20;;;;;;;18.73;10.20;;;9.20;92.20;;;;;;5072732;28;20479;-59
2023/05/17 00:47:46;;;;;;;11.98;9.13;;;9.20;93.80;;;;;;5072806;28;20032;-59
2023/05/17 00:50:11;;;;;;;14.57;9.88;;;9.20;95.60;;;;;;5072861;28;20008;-59
2023/05/17 00:52:37;;;;;;;12.57;9.50;;;9.20;97.00;;;;;;5072427;28;20028;-58
2023/05/17 00:55:03;;;;;;;13.77;8.27;;;9.20;97.50;;;;;;5072880;28;20229;-59
2023/05/17 00:57:30;;;;;;;14.07;7.85;;;9.10;94.20;;;;;;5071951;28;20035;-58
2023/05/17 00:59:57;;;;;;;16.67;7.45;;;9.00;94.30;;;;;;5071867;28;20032;-58
2023/05/17 01:02:23;;;;;;;13.73;7.10;;;9.00;94.00;;;;;;5071959;28;20029;-59
2023/05/17 01:04:49;;;;;;;14.90;6.65;;;9.00;91.90;;;;;;5072231;28;20033;-59
2023/05/17 01:07:16;;;;;;;22.60;6.18;;;9.00;93.00;;;;;;5072205;28;20040;-59
2023/05/17 01:09:42;;;;;;;10.85;5.55;;;9.00;90.70;;;;;;5070995;28;20549;-59
2023/05/17 01:12:26;;;;;;;11.82;5.60;;;9.00;90.20;;;;;;5072525;28;20437;-59
2023/05/17 01:15:13;;;;;;;13.80;5.22;;;8.90;88.30;;;;;;5070700;28;20032;-59
2023/05/17 01:17:49;;;;;;;14.38;5.57;;;8.90;87.70;;;;;;5072199;28;20028;-59
2023/05/17 01:20:36;;;;;;;10.77;5.60;;;8.90;90.40;;;;;;5072290;28;20032;-59
2023/05/17 01:23:05;;;;;;;18.63;5.32;;;8.90;88.10;;;;;;5071910;28;20020;-58
2023/05/17 01:26:12;;;;;;;8.70;5.75;;;8.80;90.00;;;;;;5072153;28;20020;-59
2023/05/17 01:28:52;;;;;;;11.27;5.57;;;8.70;92.20;;;;;;5071484;28;20021;-59
2023/05/17 01:31:19;;;;;;;10.02;5.63;;;8.70;92.10;;;;;;5072334;28;20103;-59
2023/05/17 01:33:45;;;;;;;14.45;5.82;;;8.70;91.80;;;;;;5072116;28;20028;-59
2023/05/17 01:36:11;;;;;;;15.75;7.10;;;8.70;92.40;;;;;;5071046;28;20370;-59
2023/05/17 01:38:37;;;;;;;14.75;6.20;;;8.70;92.90;;;;;;5072207;28;20029;-58
2023/05/17 01:41:20;;;;;;;14.10;6.10;;;8.70;92.80;;;;;;5071317;28;20024;-59
2023/05/17 01:44:14;;;;;;;13.40;6.47;;;8.70;91.60;;;;;;5071179;28;20052;-59
2023/05/17 01:46:42;;;;;;;15.02;6.78;;;8.70;92.80;;;;;;5069267;28;20503;-59
2023/05/17 01:49:28;;;;;;;25.77;7.60;;;8.70;93.70;;;;;;5071750;28;20013;-59
2023/05/17 01:52:05;;;;;;;10.80;7.38;;;8.70;94.00;;;;;;5071887;28;20021;-59
2023/05/17 01:54:36;;;;;;;18.75;7.53;;;8.80;94.90;;;;;;5072096;28;20055;-58
2023/05/17 01:57:05;;;;;;;11.32;6.93;;;8.80;96.20;;;;;;5071778;28;20024;-58
2023/05/17 01:59:33;;;;;;;11.95;7.70;;;8.90;97.00;;;;;;5071336;28;20052;-59
2023/05/17 02:02:07;;;;;;;13.35;7.85;;;8.90;96.30;;;;;;5071556;28;20075;-59
2023/05/17 02:04:35;;;;;;;15.32;7.78;;;8.90;97.10;;;;;;5071693;28;20020;-59
2023/05/17 02:07:01;;;;;;;9.38;6.75;;;8.90;96.80;;;;;;5071481;28;20043;-58
2023/05/17 02:09:27;;;;;;;16.75;8.30;;;8.90;96.50;;;;;;5071549;28;20024;-59
2023/05/17 02:11:53;;;;;;;15.52;7.45;;;8.80;97.30;;;;;;5071633;28;20131;-59
2023/05/17 02:14:18;;;;;;;11.98;7.10;;;8.80;97.30;;;;;;5070899;28;20131;-59
2023/05/17 02:16:44;;;;;;;13.70;7.10;;;8.80;97.60;;;;;;5071459;28;20021;-59
2023/05/17 02:19:11;;;;;;;16.88;7.95;;;8.80;97.80;;;;;;5071470;28;20388;-59
2023/05/17 02:21:46;;;;;;;13.25;8.32;;;8.80;98.10;;;;;;5070968;28;20021;-58
2023/05/17 02:24:12;;;;;;;18.08;9.15;;;8.80;98.50;;;;;;5071407;28;20028;-59
2023/05/17 02:26:44;;;;;;;19.48;9.77;;;8.80;98.00;;;;;;5070159;28;20054;-59
2023/05/17 02:29:10;;;;;;;12.75;8.45;;;8.80;99.30;;;;;;5071147;28;20538;-59
2023/05/17 02:31:35;;;;;;;14.75;9.27;;;8.80;99.20;;;;;;5070770;28;20112;-59
2023/05/17 02:34:01;;;;;;;13.80;9.50;;;8.70;99.90;;;;;;5071122;28;20107;-59
2023/05/17 02:36:27;;;;;;;21.15;10.27;;;8.70;99.90;;;;;;5070663;28;20040;-58
2023/05/17 02:38:53;;;;;;;16.40;9.50;;;8.70;99.90;;;;;;5071039;28;20039;-59
2023/05/17 02:41:21;;;;;;;15.50;10.68;;;8.70;99.90;;;;;;5071211;28;20072;-58
2023/05/17 02:43:47;;;;;;;15.98;11.02;;;8.70;99.90;;;;;;5070731;28;20511;-59
2023/05/17 02:46:12;;;;;;;17.10;11.55;;;8.70;99.90;;;;;;5071086;28;20111;-59
2023/05/17 02:48:38;;;;;;;16.05;11.85;;;8.70;99.90;;;;;;5069623;28;20055;-59
2023/05/17 02:51:04;;;;;;;13.73;11.02;;;8.70;99.90;;;;;;5071057;28;20066;-59
2023/05/17 02:53:30;;;;;;;12.30;10.98;;;8.80;99.90;;;;;;5071028;28;20061;-59
2023/05/17 02:55:56;;;;;;;15.07;9.73;;;8.90;99.90;;;;;;5070967;28;20396;-59
2023/05/17 02:58:23;;;;;;;11.77;9.13;;;8.90;99.90;;;;;;5070554;28;20439;-59
2023/05/17 03:00:49;;;;;;;12.35;8.88;;;8.90;98.90;;;;;;5069576;28;20063;-59
2023/05/17 03:03:15;;;;;;;15.75;9.93;;;8.90;97.60;;;;;;5071188;28;20108;-59
2023/05/17 03:05:41;;;;;;;20.90;11.38;;;8.80;98.40;;;;;;5070855;28;20702;-59
2023/05/17 03:08:06;;;;;;;13.82;9.98;;;8.80;98.50;;;;;;5070984;28;20064;-58
2023/05/17 03:10:32;;;;;;;16.95;10.38;;;8.90;97.70;;;;;;5070920;28;20028;-58
2023/05/17 03:12:58;;;;;;;16.02;9.48;;;8.90;97.00;;;;;;5070899;28;20388;-58
2023/05/17 03:15:25;;;;;;;15.80;9.88;;;8.90;97.40;;;;;;5071177;28;20123;-59
2023/05/17 03:17:51;;;;;;;12.93;9.80;;;8.90;97.20;;;;;;5069975;28;20025;-59
2023/05/17 03:20:17;;;;;;;14.52;9.40;;;8.90;96.80;;;;;;5073735;28;20360;-58
2023/05/17 03:22:43;;;;;;;14.07;9.60;;;8.90;96.40;;;;;;5074326;28;20557;-59
2023/05/17 03:25:09;;;;;;;13.27;9.50;;;8.90;96.10;;;;;;5074593;28;20025;-59
2023/05/17 03:27:35;;;;;;;12.10;9.48;;;8.80;96.40;;;;;;5074242;28;20029;-59
2023/05/17 03:30:00;;;;;;;14.02;11.00;;;8.80;97.20;;;;;;5074369;28;20136;-59
2023/05/17 03:32:27;;;;;;;21.40;13.43;;;8.70;97.10;;;;;;5074746;28;20032;-58
2023/05/17 03:34:52;;;;;;;15.30;10.88;;;8.70;98.60;;;;;;5073358;28;20020;-59
2023/05/17 03:37:18;;;;;;;15.60;11.65;;;8.60;98.80;;;;;;5075006;28;20069;-58
2023/05/17 03:39:43;;;;;;;16.33;10.68;;;8.60;99.20;;;;;;5073926;28;20028;-58
2023/05/17 03:42:09;;;;;;;14.32;10.30;;;8.60;99.30;;;;;;5074399;28;20056;-59
2023/05/17 03:44:35;;;;;;;14.27;10.13;;;8.60;98.80;;;;;;5073806;28;20063;-59
2023/05/17 03:47:00;;;;;;;13.48;9.68;;;8.60;97.80;;;;;;5074497;28;20124;-59
2023/05/17 03:49:26;;;;;;;16.75;9.85;;;8.60;97.50;;;;;;5073934;28;20036;-58
2023/05/17 03:51:52;;;;;;;12.38;9.98;;;8.60;98.40;;;;;;5073800;28;20028;-59
2023/05/17 03:54:17;;;;;;;16.88;8.68;;;8.70;97.10;;;;;;5074116;28;20017;-59
2023/05/17 03:56:45;;;;;;;17.40;9.90;;;8.70;96.10;;;;;;5073963;28;20363;-59
2023/05/17 03:59:12;;;;;;;14.57;9.82;;;8.70;95.20;;;;;;5073540;28;20072;-59
2023/05/17 04:01:38;;;;;;;15.50;8.48;;;8.70;96.20;;;;;;5073727;28;20024;-59
2023/05/17 04:04:04;;;;;;;12.75;9.23;;;8.70;95.60;;;;;;5073740;28;20051;-59
2023/05/17 04:06:30;;;;;;;13.57;9.98;;;8.60;92.80;;;;;;5074154;28;20021;-58
2023/05/17 04:08:58;;;;;;;15.50;10.45;;;8.60;95.60;;;;;;5074025;28;20040;-59
2023/05/17 04:11:27;;;;;;;11.68;9.20;;;8.50;94.60;;;;;;5073665;28;20024;-59
2023/05/17 04:13:53;;;;;;;17.20;8.48;;;8.60;95.40;;;;;;5074157;28;20031;-59
2023/05/17 04:16:19;;;;;;;17.38;10.57;;;8.60;93.80;;;;;;5074792;28;20039;-59
2023/05/17 04:18:45;;;;;;;10.95;7.75;;;8.60;93.90;;;;;;5072343;28;20024;-59
2023/05/17 04:21:10;;;;;;;14.73;7.70;;;8.60;91.60;;;;;;5072064;28;20035;-59
2023/05/17 04:23:36;;;;;;;11.13;7.93;;;8.60;92.90;;;;;;5072117;28;20474;-59
2023/05/17 04:26:03;;;;;;;15.35;7.80;;;8.60;92.30;;;;;;5073395;28;20017;-59
2023/05/17 04:28:30;;;;;;;13.05;7.75;;;8.60;92.00;;;;;;5073375;28;20016;-59
2023/05/17 04:30:55;;;;;;;13.30;7.32;;;8.60;92.10;;;;;;5072768;28;20045;-59
2023/05/17 04:33:21;;;;;;;12.85;8.02;;;8.60;91.70;;;;;;5073152;28;20033;-59
2023/05/17 04:35:49;;;;;;;15.13;7.97;;;8.60;91.00;;;;;;5073004;28;20066;-59
2023/05/17 04:38:15;;;;;;;11.60;7.63;;;8.60;92.30;;;;;;5073690;28;20050;-59
2023/05/17 04:40:41;;;;;;;11.35;8.23;;;8.60;91.50;;;;;;5072980;28;20028;-59
2023/05/17 04:43:07;;;;;;;15.05;7.40;;;8.60;92.50;;;;;;5073195;28;20044;-59
2023/05/17 04:45:33;;;;;;;12.98;8.70;;;8.60;93.40;;;;;;5072780;28;20052;-56
2023/05/17 04:47:59;;;;;;;19.00;8.50;;;8.50;93.90;;;;;;5072889;28;20048;-59
2023/05/17 04:50:25;;;;;;;12.18;7.70;;;8.60;94.00;;;;;;5072918;28;20536;-59
2023/05/17 04:52:50;;;;;;;11.07;8.43;;;8.70;92.90;;;;;;5072843;28;20421;-59
2023/05/17 04:55:16;;;;;;;11.18;8.50;;;8.70;92.50;;;;;;5072911;28;20024;-59
2023/05/17 04:57:47;;;;;;;14.30;9.05;;;8.60;94.20;;;;;;5072398;28;20053;-59
2023/05/17 05:00:14;;;;;;;27.17;16.13;;;8.60;94.10;;;;;;5072521;28;20029;-59
2023/05/17 05:02:46;;;;;;;15.00;10.77;;;8.70;95.20;;;;;;5072406;28;20029;-59
2023/05/17 05:05:11;;;;;;;13.88;8.82;;;8.60;94.60;;;;;;5071347;28;20020;-59
2023/05/17 05:07:38;;;;;;;10.77;8.60;;;8.70;95.70;;;;;;5072691;28;20114;-59
2023/05/17 05:10:05;;;;;;;12.52;8.27;;;8.70;94.00;;;;;;5072217;28;20016;-59
2023/05/17 05:12:30;;;;;;;12.88;8.35;;;8.60;92.40;;;;;;5071720;28;20071;-59
2023/05/17 05:14:56;;;;;;;13.40;7.90;;;8.70;93.70;;;;;;5071965;28;20032;-59
2023/05/17 05:17:22;;;;;;;11.55;7.65;;;8.80;93.10;;;;;;5072491;28;20009;-59
2023/05/17 05:19:47;;;;;;;15.88;8.50;;;8.80;91.40;;;;;;5072126;28;20037;-59
2023/05/17 05:22:13;;;;;;;15.65;7.55;;;8.70;92.00;;;;;;5071029;28;20115;-59
2023/05/17 05:24:39;;;;;;;16.52;6.93;;;8.60;84.10;;;;;;5072174;28;20025;-59
2023/05/17 05:27:04;;;;;;;11.13;7.75;;;8.60;91.80;;;;;;5072160;28;20024;-59
2023/05/17 05:29:30;;;;;;;14.35;7.63;;;8.50;89.50;;;;;;5072390;28;20025;-59
2023/05/17 05:31:56;;;;;;;9.48;6.43;;;8.50;92.70;;;;;;5071771;28;20028;-59
2023/05/17 05:34:21;;;;;;;9.93;6.68;;;8.40;93.20;;;;;;5071939;28;20066;-58
2023/05/17 05:36:47;;;;;;;13.68;6.72;;;8.40;91.90;;;;;;5072111;28;20028;-59
2023/05/17 05:39:12;;;;;;;12.75;6.15;;;8.40;91.70;;;;;;5071971;28;20095;-59
2023/05/17 05:41:38;;;;;;;12.10;5.93;;;8.30;91.10;;;;;;5071318;28;20036;-58
2023/05/17 05:44:04;;;;;;;7.53;5.63;;;8.40;91.80;;;;;;5072448;28;20379;-58
2023/05/17 05:46:30;;;;;;;13.40;5.28;;;8.40;91.70;;;;;;5071870;28;20029;-58
2023/05/17 05:48:55;;;;;;;8.57;4.70;;;8.40;91.90;;;;;;5070332;28;20024;-59
2023/05/17 05:51:21;;;;;;;9.43;4.68;;;8.40;90.30;;;;;;5071845;28;20383;-58
2023/05/17 05:53:46;;;;;;;12.38;5.00;;;8.40;85.30;;;;;;5070537;28;20031;-58
2023/05/17 05:56:12;;;;;;;8.35;4.63;;;8.40;74.90;;;;;;5070731;28;20035;-58
2023/05/17 05:58:38;;;;;;;9.88;3.78;;;8.40;81.00;;;;;;5070282;28;20612;-58
2023/05/17 06:01:03;;;;;;;25.17;14.57;;;8.40;85.70;;;;;;5070978;28;20107;-59
2023/05/17 06:03:30;;;;;;;19.00;12.15;;;8.40;81.30;;;;;;5070520;28;20528;-59
2023/05/17 06:05:56;;;;;;;13.25;4.95;;;8.40;86.30;;;;;;5069058;28;20016;-60
2023/05/17 06:08:21;;;;;;;8.50;5.68;;;8.50;83.70;;;;;;5070472;28;20013;-59
2023/05/17 06:10:47;;;;;;;16.77;5.20;;;8.40;85.10;;;;;;5070311;28;20025;-59
2023/05/17 06:13:13;;;;;;;11.40;4.90;;;8.40;91.00;;;;;;5070383;28;20107;-59
2023/05/17 06:15:39;;;;;;;11.57;5.18;;;8.40;91.90;;;;;;5070223;28;20025;-59
2023/05/17 06:18:05;;;;;;;9.18;4.97;;;8.50;91.50;;;;;;5068975;28;20074;-59
2023/05/17 06:20:31;;;;;;;14.68;4.93;;;8.60;91.20;;;;;;5070937;28;20476;-58
2023/05/17 06:22:56;;;;;;;10.40;4.90;;;8.60;85.90;;;;;;5070249;28;20047;-58
2023/05/17 06:25:22;;;;;;;10.10;4.60;;;8.60;82.30;;;;;;5070244;28;20082;-59
2023/05/17 06:27:47;;;;;;;8.82;4.57;;;8.60;79.80;;;;;;5069899;28;20048;-59
2023/05/17 06:30:13;;;;;;;13.02;4.68;;;8.80;75.10;;;;;;5070563;28;20042;-59
2023/05/17 06:32:40;;;;;;;14.02;5.25;;;8.90;80.20;;;;;;5070108;28;20107;-59
2023/05/17 06:35:06;;;;;;;9.07;4.45;;;8.90;74.30;;;;;;5070133;28;20035;-58
2023/05/17 06:37:32;;;;;;;8.63;4.10;;;9.00;67.30;;;;;;5068700;28;20052;-59
2023/05/17 06:40:04;;;;;;;13.75;4.90;;;9.00;67.10;;;;;;5070323;28;20063;-59
2023/05/17 06:42:29;;;;;;;21.88;8.85;;;9.10;61.40;;;;;;5069920;28;20126;-58
2023/05/17 06:44:55;;;;;;;6.70;4.10;;;9.10;66.20;;;;;;5070181;28;20093;-59
2023/05/17 06:47:21;;;;;;;7.80;4.85;;;9.00;64.80;;;;;;5070198;28;20021;-59
2023/05/17 06:49:46;;;;;;;7.85;5.43;;;9.00;69.10;;;;;;5071034;28;20028;-59
2023/05/17 06:52:12;;;;;;;9.13;4.57;;;8.90;62.70;;;;;;5069851;28;20020;-59
2023/05/17 06:54:37;;;;;;;9.10;5.10;;;8.80;68.80;;;;;;5074706;28;20020;-59
2023/05/17 06:57:03;;;;;;;14.25;4.70;;;8.90;82.50;;;;;;5074907;28;20614;-59
2023/05/17 06:59:29;;;;;;;11.07;5.93;;;8.90;89.70;;;;;;5074804;28;20573;-59
2023/05/17 07:01:55;;;;;;;10.82;5.43;;;8.90;87.90;;;;;;5074779;28;20103;-59
2023/05/17 07:04:21;;;;;;;10.20;4.47;;;9.00;90.60;;;;;;5074624;28;20096;-59
2023/05/17 07:06:47;;;;;;;13.57;5.55;;;9.00;90.80;;;;;;5074592;28;20108;-58
2023/05/17 07:09:12;;;;;;;10.10;4.95;;;9.00;75.00;;;;;;5074798;28;20036;-59
2023/05/17 07:11:38;;;;;;;10.43;4.82;;;9.00;84.10;;;;;;5073108;28;20122;-59
2023/05/17 07:14:04;;;;;;;14.48;5.38;;;9.00;81.80;;;;;;5074686;28;20100;-57
2023/05/17 07:16:29;;;;;;;7.70;4.88;;;9.00;82.80;;;;;;5073575;28;20040;-58
2023/05/17 07:18:55;;;;;;;7.88;3.92;;;9.10;75.80;;;;;;5074484;28;20028;-58
2023/05/17 07:21:22;;;;;;;9.40;4.68;;;9.10;46.60;;;;;;5074443;28;20040;-59
2023/05/17 07:23:49;;;;;;;10.35;4.65;;;9.10;54.80;;;;;;5073767;28;20029;-59
2023/05/17 07:26:16;;;;;;;11.35;4.95;;;9.10;54.80;;;;;;5073235;28;20020;-59
2023/05/17 07:28:43;;;;;;;9.85;3.83;;;9.20;64.20;;;;;;5071783;28;20025;-59
2023/05/17 07:31:08;;;;;;;5.63;4.25;;;9.30;53.10;;;;;;5073559;28;20020;-59
2023/05/17 07:33:35;;;;;;;8.88;4.47;;;9.40;54.40;;;;;;5073160;28;20475;-59
2023/05/17 07:36:01;;;;;;;9.32;4.40;;;9.40;55.80;;;;;;5073712;28;20500;-59
2023/05/17 07:38:27;;;;;;;5.35;4.20;;;9.50;59.40;;;;;;5071982;28;20056;-59
2023/05/17 07:40:52;;;;;;;7.43;4.20;;;9.40;50.40;;;;;;5072853;28;20054;-59
2023/05/17 07:43:18;;;;;;;15.13;5.05;;;9.40;41.30;;;;;;5073603;28;20032;-59
2023/05/17 07:45:43;;;;;;;10.35;3.92;;;9.50;61.50;;;;;;5072810;28;20078;-58
2023/05/17 07:48:09;;;;;;;12.73;3.80;;;9.60;60.40;;;;;;5072804;28;20031;-58
2023/05/17 07:50:35;;;;;;;7.70;3.83;;;9.50;37.20;;;;;;5072814;28;20063;-58
2023/05/17 07:53:01;;;;;;;8.73;4.25;;;9.50;59.80;;;;;;5072876;28;20120;-59
2023/05/17 07:55:26;;;;;;;8.07;4.03;;;9.40;19.70;;;;;;5072718;28;20021;-58
2023/05/17 07:57:52;;;;;;;10.60;4.47;;;9.40;38.20;;;;;;5072334;28;20416;-59
2023/05/17 08:00:18;;;;;;;8.45;3.88;;;9.40;46.00;;;;;;5072751;28;20536;-59
2023/05/17 08:02:45;;;;;;;10.05;4.03;;;9.50;39.80;;;;;;5071167;28;20016;-59
2023/05/17 08:05:10;;;;;;;9.15;3.15;;;9.30;12.80;;;;;;5072354;28;20345;-59
2023/05/17 08:07:36;;;;;;;7.22;3.60;;;9.20;11.40;;;;;;5071095;28;20021;-59
2023/05/17 08:10:02;;;;;;;7.38;3.90;;;9.30;50.20;;;;;;5072510;28;20025;-59
2023/05/17 08:12:28;;;;;;;13.25;8.82;;;9.40;44.70;;;;;;5072545;28;20033;-59
2023/05/17 08:14:53;;;;;;;200.80;86.65;;;9.40;44.50;;;;;;5072218;28;20508;-58
2023/05/17 08:17:19;;;;;;;13.85;5.60;;;9.50;56.10;;;;;;5072409;28;20690;-59
2023/05/17 08:19:45;;;;;;;9.88;7.32;;;9.40;57.80;;;;;;5072232;28;20032;-59
2023/05/17 08:22:10;;;;;;;6.20;3.55;;;9.50;39.40;;;;;;5072408;28;20077;-59
2023/05/17 08:24:36;;;;;;;40.00;5.90;;;9.30;53.30;;;;;;5072019;28;20054;-58
2023/05/17 08:27:02;;;;;;;8.07;3.72;;;9.40;58.70;;;;;;5072201;28;20383;-58
2023/05/17 08:29:27;;;;;;;11.57;6.15;;;9.40;61.60;;;;;;5072162;28;20027;-59
2023/05/17 08:31:54;;;;;;;14.23;5.53;;;9.30;66.50;;;;;;5071868;28;20468;-59
2023/05/17 08:34:21;;;;;;;7.60;5.80;;;9.40;36.10;;;;;;5071886;28;20471;-58
2023/05/17 08:36:46;;;;;;;16.35;5.78;;;9.30;1.00;;;;;;5071816;28;20032;-59
2023/05/17 08:39:12;;;;;;;12.93;6.35;;;9.30;4.80;;;;;;5071736;28;20388;-59
2023/05/17 08:41:48;;;;;;;4.80;3.63;;;9.40;17.10;;;;;;5071636;28;20020;-59
2023/05/17 08:44:17;;;;;;;5.68;2.72;;;9.40;2.50;;;;;;5071834;28;20029;-59
2023/05/17 08:46:52;;;;;;;4.70;2.58;;;9.40;23.50;;;;;;5071804;28;20025;-59
2023/05/17 08:49:24;;;;;;;6.60;3.22;;;9.30;3.20;;;;;;5072272;28;20029;-59
2023/05/17 08:51:53;;;;;;;6.05;3.38;;;9.20;5.50;;;;;;5071832;28;20047;-59
2023/05/17 08:54:18;;;;;;;3.90;2.70;;;9.10;25.10;;;;;;5071557;28;20055;-59
2023/05/17 08:56:51;;;;;;;6.20;2.90;;;9.20;52.90;;;;;;5071427;28;20021;-59
2023/05/17 08:59:18;;;;;;;9.25;4.47;;;9.10;48.90;;;;;;5070056;28;20040;-59
2023/05/17 09:01:47;;;;;;;6.65;3.53;;;8.90;41.10;;;;;;5071503;28;20021;-59
2023/05/17 09:04:13;;;;;;;9.38;3.80;;;8.80;9.40;;;;;;5071874;28;20028;-60
2023/05/17 09:06:39;;;;;;;11.73;4.70;;;8.70;30.20;;;;;;5071316;28;20025;-59
2023/05/17 09:09:08;;;;;;;4.80;2.88;;;8.70;40.60;;;;;;5071267;28;20021;-59
2023/05/17 09:11:33;;;;;;;3.75;2.25;;;8.60;35.30;;;;;;5069774;28;20021;-59
2023/05/17 09:14:03;;;;;;;7.25;3.30;;;8.60;48.40;;;;;;5071322;28;20089;-59
2023/05/17 09:16:35;;;;;;;10.23;3.65;;;8.60;49.00;;;;;;5068701;28;20029;-59
2023/05/17 09:19:02;;;;;;;6.70;3.50;;;8.60;35.80;;;;;;5070612;28;20073;-58
2023/05/17 09:21:30;;;;;;;6.13;2.33;;;8.40;16.90;;;;;;5070658;28;20020;-54
2023/05/17 09:23:58;;;;;;;6.05;3.28;;;8.40;32.80;;;;;;5071897;28;20040;-55
2023/05/17 09:26:24;;;;;;;7.75;2.33;;;8.40;40.60;;;;;;5071341;28;20436;-58
2023/05/17 09:28:52;;;;;;;4.43;2.67;;;8.30;39.10;;;;;;5070826;28;20108;-58
2023/05/17 09:31:18;;;;;;;8.00;2.63;;;8.20;36.90;;;;;;5068562;28;20020;-58
2023/05/17 09:33:48;;;;;;;5.57;2.40;;;8.30;48.70;;;;;;5068382;28;20051;-58
2023/05/17 09:36:21;;;;;;;4.35;2.67;;;8.40;39.40;;;;;;5070237;28;20344;-59
2023/05/17 09:39:04;;;;;;;;;;;8.60;33.50;;;;;;5071108;28;20115;-58
2023/05/17 09:41:32;;;;;;;9.65;3.55;;;8.60;50.10;;;;;;5069867;28;19922;-58
2023/05/17 09:44:02;;;;;;;8.38;3.25;;;8.60;49.70;;;;;;5070508;28;20380;-58
2023/05/17 09:46:33;;;;;;;5.38;3.28;;;8.70;57.30;;;;;;5070753;28;20116;-58
2023/05/17 09:49:01;;;;;;;5.70;2.80;;;8.70;53.20;;;;;;5069056;28;20515;-58
2023/05/17 09:51:35;;;;;;;7.38;2.60;;;8.60;42.30;;;;;;5070485;28;20032;-57
2023/05/17 09:54:01;;;;;;;6.35;2.92;;;8.70;37.40;;;;;;5070500;28;20025;-58
2023/05/17 09:56:30;;;;;;;8.52;3.30;;;8.80;30.30;;;;;;5070445;28;20128;-58
2023/05/17 09:58:57;;;;;;;4.40;3.40;;;8.90;59.70;;;;;;5069905;28;20074;-59
2023/05/17 10:01:26;;;;;;;6.40;2.97;;;9.00;36.00;;;;;;5070228;28;20028;-59
2023/05/17 10:03:53;;;;;;;6.60;3.65;;;9.20;13.50;;;;;;5068685;28;20028;-58
2023/05/17 10:06:21;;;;;;;9.52;5.03;;;9.20;13.50;;;;;;5069659;28;20025;-58
2023/05/17 10:08:51;;;;;;;8.00;3.03;;;9.20;17.80;;;;;;5070120;28;20047;-58
2023/05/17 10:11:21;;;;;;;5.03;2.67;;;9.40;8.70;;;;;;5070131;28;20025;-58
2023/05/17 10:13:57;;;;;;;7.90;3.38;;;9.40;1.00;;;;;;5068845;28;20107;-59
2023/05/17 10:16:23;;;;;;;119.90;46.05;;;9.50;1.00;;;;;;5069832;28;20020;-59
2023/05/17 10:18:50;;;;;;;8.18;3.45;;;9.30;4.10;;;;;;5070109;28;20384;-58
2023/05/17 10:21:16;;;;;;;4.03;2.63;;;9.20;12.90;;;;;;5068433;28;20035;-59
2023/05/17 10:23:43;;;;;;;11.45;3.00;;;9.30;1.00;;;;;;5068923;28;20051;-58
2023/05/17 10:26:09;;;;;;;11.55;4.85;;;9.20;1.00;;;;;;5070372;28;20027;-59
2023/05/17 10:28:36;;;;;;;7.25;3.20;;;9.30;1.00;;;;;;5048831;28;20037;-59
2023/05/17 10:31:02;;;;;;;7.10;3.10;;;9.40;1.00;;;;;;5044248;28;20037;-58
2023/05/17 10:33:30;;;;;;;31.35;15.95;;;9.40;3.30;;;;;;5042501;28;20032;-58
2023/05/17 10:35:58;;;;;;;14.50;6.82;;;9.20;1.00;;;;;;5041856;28;20250;-59
2023/05/17 10:38:25;;;;;;;5.35;2.78;;;9.00;22.80;;;;;;5043297;28;20033;-58
2023/05/17 10:40:52;;;;;;;4.78;3.10;;;9.30;1.00;;;;;;5042188;28;20472;-58
2023/05/17 10:43:19;;;;;;;5.88;3.13;;;9.50;1.00;;;;;;5043492;28;20048;-58
2023/05/17 10:45:45;;;;;;;17.73;9.55;;;9.70;1.00;;;;;;5045002;28;20021;-57
2023/05/17 10:48:14;;;;;;;8.18;3.65;;;9.50;6.60;;;;;;5043892;28;20384;-59
2023/05/17 10:50:41;;;;;;;13.88;8.68;;;9.70;1.00;;;;;;5043323;28;20159;-58
2023/05/17 10:53:12;;;;;;;25.33;13.80;;;9.40;1.00;;;;;;5043106;28;20048;-57
2023/05/17 10:55:42;;;;;;;10.68;3.60;;;9.20;16.90;;;;;;5043675;28;20036;-59
2023/05/17 10:58:18;;;;;;;9.30;6.72;;;9.60;1.00;;;;;;5045764;28;20561;-58
2023/05/17 11:00:49;;;;;;;12.55;3.20;;;9.80;1.00;;;;;;5043564;28;20717;-57
2023/05/17 11:03:20;;;;;;;14.70;6.03;;;10.00;1.00;;;;;;5044914;28;20025;-56
2023/05/17 11:06:11;;;;;;;10.25;3.90;;;9.90;1.00;;;;;;5043938;28;20064;-57
2023/05/17 11:09:04;;;;;;;9.18;3.95;;;9.80;1.00;;;;;;5046237;28;20055;-55
2023/05/17 11:11:30;;;;;;;10.23;3.10;;;9.70;1.00;;;;;;5043900;28;20036;-58
2023/05/17 11:13:56;;;;;;;8.57;2.90;;;10.00;1.00;;;;;;5043727;28;20040;-58
2023/05/17 11:16:42;;;;;;;5.82;2.92;;;10.20;1.00;;;;;;5042294;28;20182;-56
2023/05/17 11:19:11;;;;;;;7.05;3.50;;;10.30;1.00;;;;;;5041755;28;20119;-56
2023/05/17 11:21:47;;;;;;;5.57;3.95;;;10.20;1.00;;;;;;5041634;28;20065;-59
2023/05/17 11:24:23;;;;;;;12.13;4.45;;;10.20;1.00;;;;;;5049653;28;20025;-58
2023/05/17 11:26:50;;;;;;;8.27;3.50;;;10.20;1.00;;;;;;5052372;28;20108;-59
2023/05/17 11:29:16;;;;;;;3.30;2.58;;;10.20;1.00;;;;;;5051736;28;20078;-59
2023/05/17 11:31:51;;;;;;;6.93;2.70;;;10.50;1.00;;;;;;5061193;28;20433;-58
2023/05/17 11:34:18;;;;;;;7.55;5.00;;;10.20;1.00;;;;;;5072287;28;20036;-58
2023/05/17 11:36:54;;;;;;;5.10;3.35;;;10.40;1.00;;;;;;5072538;28;20108;-58
2023/05/17 11:39:22;;;;;;;6.68;3.00;;;10.70;1.00;;;;;;5071972;28;20033;-58
2023/05/17 11:41:52;;;;;;;6.20;3.97;;;10.90;1.00;;;;;;5073049;28;20028;-58
2023/05/17 11:44:28;;;;;;;5.38;2.60;;;10.50;1.00;;;;;;5072933;28;20028;-59
2023/05/17 11:47:20;;;;;;;6.50;2.53;;;10.70;1.00;;;;;;5072517;28;20020;-59
2023/05/17 11:49:50;;;;;;;8.23;3.50;;;10.70;1.00;;;;;;5071573;28;20033;-59
2023/05/17 11:52:15;;;;;;;8.63;3.60;;;10.40;1.00;;;;;;5072541;28;20020;-58
2023/05/17 11:54:48;;;;;;;8.07;3.13;;;10.40;1.00;;;;;;5072269;28;20506;-59
2023/05/17 11:57:16;;;;;;;4.68;2.38;;;10.40;1.00;;;;;;5072642;28;20067;-59
2023/05/17 11:59:42;;;;;;;7.38;3.00;;;10.70;1.00;;;;;;5072446;28;20049;-59
2023/05/17 12:02:09;;;;;;;6.53;2.58;;;10.70;1.00;;;;;;5072074;28;20511;-58
2023/05/17 12:04:36;;;;;;;5.97;2.63;;;10.70;1.00;;;;;;5072426;28;20493;-59
2023/05/17 12:07:03;;;;;;;11.43;4.63;;;10.70;1.00;;;;;;5071985;28;20024;-58
2023/05/17 12:09:29;;;;;;;7.93;2.45;;;10.70;1.00;;;;;;5072555;28;20020;-58
2023/05/17 12:11:55;;;;;;;7.47;2.95;;;10.60;1.00;;;;;;5072327;28;20035;-58
2023/05/17 12:14:21;;;;;;;3.72;2.80;;;10.70;1.00;;;;;;5072534;28;20021;-59
2023/05/17 12:16:51;;;;;;;5.13;2.88;;;10.80;1.00;;;;;;5072428;28;20422;-59
2023/05/17 12:19:18;;;;;;;5.10;2.97;;;10.80;1.00;;;;;;5072034;28;20020;-59
2023/05/17 12:21:45;;;;;;;5.13;3.22;;;10.50;1.00;;;;;;5071132;28;20429;-59
2023/05/17 12:24:10;;;;;;;5.45;2.67;;;11.00;1.00;;;;;;5071358;28;20099;-59
2023/05/17 12:26:45;;;;;;;12.95;3.88;;;11.10;1.00;;;;;;5072272;28;20108;-59
2023/05/17 12:29:13;;;;;;;3.95;2.90;;;11.00;1.00;;;;;;5071258;28;20023;-58
2023/05/17 12:31:45;;;;;;;8.15;2.65;;;11.60;1.00;;;;;;5071609;28;20086;-59
2023/05/17 12:34:12;;;;;;;4.40;2.38;;;11.70;1.00;;;;;;5072284;28;20051;-59
2023/05/17 12:36:39;;;;;;;7.30;3.85;;;12.10;99.90;;;;;;5071650;28;20078;-58
2023/05/17 12:39:08;;;;;;;5.68;2.67;;;11.80;99.90;;;;;;5071077;28;20033;-59
2023/05/17 12:41:35;;;;;;;7.07;2.85;;;11.90;16.00;;;;;;5071486;28;20060;-58
2023/05/17 12:44:01;;;;;;;5.68;2.78;;;11.80;99.90;;;;;;5071623;28;20539;-59
2023/05/17 12:46:27;;;;;;;6.35;2.72;;;12.30;99.90;;;;;;5071632;28;20104;-59
2023/05/17 12:48:53;;;;;;;7.70;2.35;;;12.50;1.00;;;;;;5071476;28;20025;-59
2023/05/17 12:51:22;;;;;;;11.20;2.88;;;12.90;69.30;;;;;;5070783;28;20090;-58
2023/05/17 12:53:52;;;;;;;8.23;2.40;;;13.30;99.90;;;;;;5071212;28;20083;-59